createdAt,value
2023-04-18T00:02:17.557Z,100.00
2023-04-18T00:05:24.770Z,100.00
2023-04-18T00:08:36.648Z,100.00
2023-04-18T00:11:43.531Z,100.00
2023-04-18T00:14:52.827Z,100.00
2023-04-18T00:18:03.791Z,100.00
2023-04-18T00:21:11.122Z,100.00
2023-04-18T00:24:22.855Z,100.00
2023-04-18T00:27:27.925Z,100.00
2023-04-18T00:30:35.587Z,100.00
2023-04-18T00:33:39.968Z,100.00
2023-04-18T00:36:42.860Z,100.00
2023-04-18T00:39:48.500Z,100.00
2023-04-18T00:42:52.119Z,100.00
2023-04-18T00:45:59.737Z,100.00
2023-04-18T00:49:02.690Z,100.00
2023-04-18T00:52:07.084Z,100.00
2023-04-18T00:55:15.624Z,100.00
2023-04-18T00:58:20.343Z,100.00
2023-04-18T01:01:24.503Z,100.00
2023-04-18T01:04:30.212Z,100.00
2023-04-18T01:07:33.972Z,100.00
2023-04-18T01:10:38.555Z,100.00
2023-04-18T01:13:41.053Z,100.00
2023-04-18T01:16:44.034Z,100.00
2023-04-18T01:19:50.097Z,100.00
2023-04-18T01:23:01.467Z,100.00
2023-04-18T01:26:05.219Z,100.00
2023-04-18T01:29:08.826Z,100.00
2023-04-18T01:32:14.936Z,100.00
2023-04-18T01:35:17.863Z,100.00
2023-04-18T01:38:25.162Z,100.00
2023-04-18T01:41:35.019Z,100.00
2023-04-18T01:44:39.689Z,100.00
2023-04-18T01:47:45.116Z,100.00
2023-04-18T01:50:49.941Z,100.00
2023-04-18T01:53:54.043Z,100.00
2023-04-18T01:56:58.164Z,100.00
2023-04-18T02:00:02.971Z,100.00
2023-04-18T02:03:18.101Z,100.00
2023-04-18T02:06:24.236Z,100.00
2023-04-18T02:09:31.209Z,100.00
2023-04-18T02:12:36.343Z,100.00
2023-04-18T02:15:43.424Z,100.00
2023-04-18T02:18:53.139Z,100.00
2023-04-18T02:22:05.082Z,100.00
2023-04-18T02:25:11.204Z,100.00
2023-04-18T02:28:14.607Z,100.00
2023-04-18T02:31:18.389Z,100.00
2023-04-18T02:34:20.000Z,100.00
2023-04-18T02:37:25.012Z,100.00
2023-04-18T02:40:29.685Z,100.00
2023-04-18T02:43:35.021Z,100.00
2023-04-18T02:46:37.874Z,100.00
2023-04-18T02:49:59.404Z,100.00
2023-04-18T02:53:06.453Z,100.00
2023-04-18T02:56:32.162Z,100.00
2023-04-18T02:59:57.870Z,100.00
2023-04-18T03:03:20.568Z,100.00
2023-04-18T03:06:48.147Z,100.00
2023-04-18T03:09:54.175Z,100.00
2023-04-18T03:13:07.676Z,100.00
2023-04-18T03:16:17.701Z,100.00
2023-04-18T03:19:28.580Z,100.00
2023-04-18T03:22:35.696Z,100.00
2023-04-18T03:25:40.770Z,100.00
2023-04-18T03:28:43.834Z,100.00
2023-04-18T03:31:49.146Z,100.00
2023-04-18T03:34:53.461Z,100.00
2023-04-18T03:37:59.638Z,100.00
2023-04-18T03:41:07.971Z,100.00
2023-04-18T03:44:13.514Z,100.00
2023-04-18T03:47:19.721Z,100.00
2023-04-18T03:50:28.519Z,100.00
2023-04-18T03:53:32.704Z,100.00
2023-04-18T03:56:36.450Z,100.00
2023-04-18T03:59:43.902Z,100.00
2023-04-18T04:02:46.440Z,100.00
2023-04-18T04:05:59.275Z,100.00
2023-04-18T04:09:06.420Z,100.00
2023-04-18T04:12:09.246Z,100.00
2023-04-18T04:15:25.390Z,100.00
2023-04-18T04:18:35.907Z,100.00
2023-04-18T04:21:38.734Z,100.00
2023-04-18T04:24:46.982Z,100.00
2023-04-18T04:27:54.684Z,100.00
2023-04-18T04:30:59.528Z,100.00
2023-04-18T04:34:05.252Z,100.00
2023-04-18T04:37:10.480Z,100.00
2023-04-18T04:40:25.799Z,100.00
2023-04-18T04:43:31.431Z,100.00
2023-04-18T04:46:36.868Z,100.00
2023-04-18T04:49:42.234Z,100.00
2023-04-18T04:52:49.851Z,100.00
2023-04-18T04:55:55.133Z,100.00
2023-04-18T04:58:59.193Z,100.00
2023-04-18T05:02:24.785Z,100.00
2023-04-18T05:05:31.319Z,100.00
2023-04-18T05:08:39.103Z,100.00
2023-04-18T05:11:42.679Z,100.00
2023-04-18T05:14:44.831Z,100.00
2023-04-18T05:17:46.737Z,100.00
2023-04-18T05:20:53.891Z,100.00
2023-04-18T05:23:57.127Z,100.00
2023-04-18T05:26:59.609Z,100.00
2023-04-18T05:30:04.354Z,100.00
2023-04-18T05:33:09.672Z,100.00
2023-04-18T05:36:23.134Z,100.00
2023-04-18T05:39:28.536Z,100.00
2023-04-18T05:42:35.073Z,100.00
2023-04-18T05:45:39.197Z,100.00
2023-04-18T05:48:43.156Z,100.00
2023-04-18T05:51:46.561Z,100.00
2023-04-18T05:54:49.649Z,100.00
2023-04-18T05:57:54.059Z,100.00
2023-04-18T06:00:57.768Z,100.00
2023-04-18T06:04:02.401Z,100.00
2023-04-18T06:07:08.337Z,100.00
2023-04-18T06:10:14.195Z,100.00
2023-04-18T06:13:18.666Z,100.00
2023-04-18T06:16:23.227Z,100.00
2023-04-18T06:19:25.490Z,100.00
2023-04-18T06:22:29.685Z,100.00
2023-04-18T06:25:37.040Z,100.00
2023-04-18T06:28:42.108Z,100.00
2023-04-18T06:31:49.864Z,100.00
2023-04-18T06:34:58.957Z,100.00
2023-04-18T06:38:13.217Z,100.00
2023-04-18T06:41:17.764Z,100.00
2023-04-18T06:44:20.170Z,100.00
2023-04-18T06:47:25.662Z,100.00
2023-04-18T06:50:32.975Z,100.00
2023-04-18T06:53:36.517Z,100.00
2023-04-18T06:56:40.015Z,100.00
2023-04-18T06:59:55.326Z,100.00
2023-04-18T07:03:02.163Z,100.00
2023-04-18T07:06:08.463Z,100.00
2023-04-18T07:09:10.931Z,100.00
2023-04-18T07:12:13.941Z,100.00
2023-04-18T07:15:17.853Z,100.00
2023-04-18T07:18:36.699Z,100.00
2023-04-18T07:21:44.361Z,100.00
2023-04-18T07:24:47.939Z,100.00
2023-04-18T07:28:00.462Z,100.00
2023-04-18T07:31:06.647Z,99.71
2023-04-18T07:34:10.409Z,98.99
2023-04-18T07:37:17.508Z,98.05
2023-04-18T07:40:21.210Z,97.59
2023-04-18T07:43:24.753Z,97.46
2023-04-18T07:46:31.225Z,97.40
2023-04-18T07:49:34.654Z,97.59
2023-04-18T07:52:45.740Z,97.34
2023-04-18T07:55:51.207Z,96.69
2023-04-18T07:59:07.956Z,96.38
2023-04-18T08:02:11.892Z,95.49
2023-04-18T08:05:16.625Z,95.37
2023-04-18T08:08:19.761Z,95.17
2023-04-18T08:11:21.752Z,95.86
2023-04-18T08:14:26.533Z,95.17
2023-04-18T08:17:38.349Z,93.96
2023-04-18T08:20:43.297Z,95.24
2023-04-18T08:23:47.046Z,95.67
2023-04-18T08:26:50.498Z,94.20
2023-04-18T08:30:00.816Z,93.95
2023-04-18T08:33:04.273Z,92.89
2023-04-18T08:36:08.426Z,92.22
2023-04-18T08:39:11.816Z,91.55
2023-04-18T08:42:19.826Z,90.54
2023-04-18T08:45:21.540Z,90.71
2023-04-18T08:48:23.601Z,90.35
2023-04-18T08:51:27.139Z,90.46
2023-04-18T08:54:30.861Z,89.77
2023-04-18T08:57:35.634Z,89.48
2023-04-18T09:00:38.278Z,89.35
2023-04-18T09:03:44.383Z,88.80
2023-04-18T09:06:55.596Z,88.27
2023-04-18T09:10:01.889Z,88.02
2023-04-18T09:13:04.826Z,87.33
2023-04-18T09:16:09.784Z,87.63
2023-04-18T09:19:19.259Z,87.18
2023-04-18T09:22:22.958Z,88.82
2023-04-18T09:25:48.743Z,89.40
2023-04-18T09:28:54.055Z,88.38
2023-04-18T09:32:01.187Z,87.38
2023-04-18T09:35:09.783Z,86.77
2023-04-18T09:38:13.901Z,86.17
2023-04-18T09:41:19.927Z,85.56
2023-04-18T09:44:26.243Z,84.92
2023-04-18T09:50:47.385Z,84.59
2023-04-18T09:53:53.356Z,85.21
2023-04-18T09:57:06.292Z,84.98
2023-04-18T10:00:24.680Z,83.99
2023-04-18T10:03:37.863Z,83.72
2023-04-18T10:06:44.558Z,84.00
2023-04-18T10:09:46.890Z,83.84
2023-04-18T10:12:54.292Z,83.63
2023-04-18T10:15:56.924Z,83.78
2023-04-18T10:19:26.485Z,83.92
2023-04-18T10:22:28.678Z,83.57
2023-04-18T10:25:39.565Z,83.45
2023-04-18T10:28:53.463Z,83.33
2023-04-18T10:31:55.980Z,83.20
2023-04-18T10:34:59.712Z,83.88
2023-04-18T10:38:01.992Z,82.63
2023-04-18T10:41:17.191Z,83.22
2023-04-18T10:44:21.876Z,82.46
2023-04-18T10:47:37.009Z,82.46
2023-04-18T10:51:25.310Z,82.98
2023-04-18T10:54:44.171Z,83.38
2023-04-18T10:57:47.772Z,83.05
2023-04-18T11:00:54.077Z,82.52
2023-04-18T11:03:57.201Z,81.51
2023-04-18T11:07:01.323Z,82.37
2023-04-18T11:10:07.465Z,82.15
2023-04-18T11:13:10.595Z,82.35
2023-04-18T11:16:28.581Z,81.17
2023-04-18T11:19:30.656Z,80.69
2023-04-18T11:22:32.349Z,81.00
2023-04-18T11:25:40.595Z,81.72
2023-04-18T11:28:43.068Z,80.62
2023-04-18T11:31:51.984Z,80.33
2023-04-18T11:34:55.200Z,79.65
2023-04-18T11:37:56.838Z,79.38
2023-04-18T11:40:58.391Z,78.80
2023-04-18T11:44:01.410Z,79.52
2023-04-18T11:47:03.444Z,79.49
2023-04-18T11:50:07.750Z,80.17
2023-04-18T11:53:09.538Z,80.88
2023-04-18T11:56:13.344Z,80.25
2023-04-18T11:59:16.187Z,79.50
2023-04-18T12:02:18.548Z,78.92
2023-04-18T12:05:31.242Z,78.20
2023-04-18T12:08:33.472Z,78.76
2023-04-18T12:11:35.643Z,78.96
2023-04-18T12:14:37.252Z,79.64
2023-04-18T12:17:39.447Z,79.69
2023-04-18T12:20:54.551Z,80.31
2023-04-18T12:23:57.753Z,80.43
2023-04-18T12:26:59.727Z,79.95
2023-04-18T12:30:03.440Z,80.34
2023-04-18T12:33:05.579Z,81.09
2023-04-18T12:36:11.178Z,80.47
2023-04-18T12:39:13.338Z,79.62
2023-04-18T12:42:15.476Z,80.12
2023-04-18T12:45:18.521Z,79.91
2023-04-18T12:48:20.663Z,80.08
2023-04-18T12:51:23.769Z,80.05
2023-04-18T12:54:25.901Z,80.21
2023-04-18T12:57:31.873Z,80.28
2023-04-18T13:00:34.104Z,79.80
2023-04-18T13:03:36.711Z,79.91
2023-04-18T13:06:38.411Z,80.01
2023-04-18T13:09:39.979Z,79.90
2023-04-18T13:12:43.452Z,79.97
2023-04-18T13:15:45.607Z,79.31
2023-04-18T13:18:47.603Z,78.63
2023-04-18T13:21:50.088Z,78.29
2023-04-18T13:24:52.031Z,77.75
2023-04-18T13:27:58.731Z,77.73
2023-04-18T13:31:01.646Z,77.96
2023-04-18T13:34:09.321Z,77.92
2023-04-18T13:37:11.909Z,78.30
2023-04-18T13:40:13.705Z,77.49
2023-04-18T13:43:15.495Z,77.20
2023-04-18T13:46:17.754Z,77.42
2023-04-18T13:49:20.068Z,77.03
2023-04-18T13:52:22.050Z,77.43
2023-04-18T13:55:25.816Z,78.31
2023-04-18T13:58:28.013Z,78.87
2023-04-18T14:01:31.915Z,78.71
2023-04-18T14:04:36.178Z,78.66
2023-04-18T14:07:40.623Z,79.08
2023-04-18T14:10:42.223Z,79.04
2023-04-18T14:13:44.841Z,78.75
2023-04-18T14:16:46.710Z,78.98
2023-04-18T14:48:36.062Z,81.81
2023-04-18T14:51:38.187Z,83.27
2023-04-18T14:54:39.796Z,84.16
2023-04-18T14:57:42.382Z,83.74
2023-04-18T15:00:44.850Z,83.81
2023-04-18T15:03:50.237Z,83.72
2023-04-18T15:06:52.465Z,83.92
2023-04-18T15:09:55.229Z,84.18
2023-04-18T15:12:57.027Z,84.04
2023-04-18T15:16:00.037Z,84.77
2023-04-18T15:19:03.268Z,85.04
2023-04-18T15:22:05.766Z,85.42
2023-04-18T15:25:16.436Z,84.88
2023-04-18T15:28:19.239Z,85.22
2023-04-18T15:31:21.859Z,86.00
2023-04-18T15:34:26.303Z,85.38
2023-04-18T15:37:29.158Z,85.49
2023-04-18T15:40:33.049Z,85.94
2023-04-18T15:43:34.971Z,85.47
2023-04-18T15:46:36.780Z,85.36
2023-04-18T15:49:39.004Z,86.06
2023-04-18T15:52:41.796Z,85.92
2023-04-18T15:55:43.420Z,85.38
2023-04-18T15:58:45.057Z,86.09
2023-04-18T16:01:46.732Z,86.02
2023-04-18T16:04:49.598Z,87.14
2023-04-18T16:07:53.830Z,86.46
2023-04-18T16:10:55.996Z,86.19
2023-04-18T16:13:57.601Z,86.02
2023-04-18T16:16:59.730Z,86.55
2023-04-18T16:20:01.790Z,86.85
2023-04-18T16:23:04.311Z,87.27
2023-04-18T16:26:08.566Z,87.05
2023-04-18T16:29:10.662Z,86.64
2023-04-18T16:32:12.224Z,87.13
2023-04-18T16:35:14.647Z,87.26
2023-04-18T16:38:16.752Z,87.18
2023-04-18T16:41:19.559Z,86.63
2023-04-18T16:44:21.580Z,85.94
2023-04-18T16:47:24.310Z,85.97
2023-04-18T16:50:26.478Z,86.24
2023-04-18T16:53:28.303Z,86.09
2023-04-18T16:56:33.754Z,86.89
2023-04-18T16:59:35.459Z,86.77
2023-04-18T17:02:42.722Z,86.96
2023-04-18T17:05:45.604Z,86.35
2023-04-18T17:08:48.891Z,86.81
2023-04-18T17:11:50.683Z,86.93
2023-04-18T17:14:56.078Z,87.34
2023-04-18T17:18:00.360Z,87.03
2023-04-18T17:21:02.142Z,87.75
2023-04-18T17:24:06.004Z,87.66
2023-04-18T17:27:09.165Z,88.00
2023-04-18T17:30:13.932Z,87.82
2023-04-18T17:33:16.795Z,88.20
2023-04-18T17:36:21.542Z,87.85
2023-04-18T17:39:23.572Z,88.31
2023-04-18T17:42:25.460Z,88.13
2023-04-18T17:45:27.643Z,88.23
2023-04-18T17:48:30.299Z,87.79
2023-04-18T17:51:32.617Z,87.20
2023-04-18T17:54:34.801Z,86.50
2023-04-18T17:57:36.428Z,87.20
2023-04-18T18:00:41.696Z,87.07
2023-04-18T18:03:44.553Z,87.34
2023-04-18T18:06:56.865Z,87.08
2023-04-18T18:09:58.917Z,86.94
2023-04-18T18:13:00.934Z,87.15
2023-04-18T18:16:12.133Z,87.52
2023-04-18T18:19:17.551Z,87.49
2023-04-18T18:22:21.460Z,87.96
2023-04-18T18:25:25.618Z,88.27
2023-04-18T18:28:27.315Z,88.58
2023-04-18T18:31:30.365Z,88.59
2023-04-18T18:34:34.990Z,88.66
2023-04-18T18:37:37.518Z,88.37
2023-04-18T18:40:39.693Z,88.90
2023-04-18T18:43:44.153Z,88.90
2023-04-18T18:47:00.482Z,88.73
2023-04-18T18:50:12.763Z,88.79
2023-04-18T18:53:17.974Z,88.97
2023-04-18T18:56:20.148Z,88.72
2023-04-18T18:59:30.714Z,89.67
2023-04-18T19:02:33.134Z,89.55
2023-04-18T19:05:35.890Z,89.28
2023-04-18T19:08:55.286Z,89.91
2023-04-18T19:11:58.463Z,89.83
2023-04-18T19:15:00.777Z,89.15
2023-04-18T19:18:04.879Z,89.99
2023-04-18T19:21:07.762Z,90.04
2023-04-18T19:24:14.287Z,90.68
2023-04-18T19:27:17.269Z,89.79
2023-04-18T19:30:19.534Z,90.83
2023-04-18T19:33:27.108Z,90.77
2023-04-18T19:36:29.682Z,91.08
2023-04-18T19:39:31.449Z,91.01
2023-04-18T19:42:33.040Z,90.89
2023-04-18T19:45:35.447Z,91.16
2023-04-18T19:48:37.939Z,91.64
2023-04-18T19:51:40.247Z,91.28
2023-04-18T19:54:41.851Z,91.68
2023-04-18T19:57:43.950Z,91.57
2023-04-18T20:00:46.385Z,91.13
2023-04-18T20:03:48.665Z,91.84
2023-04-18T20:06:50.869Z,91.52
2023-04-18T20:09:53.087Z,90.91
2023-04-18T20:12:54.666Z,91.21
2023-04-18T20:15:56.276Z,91.78
2023-04-18T20:18:57.996Z,92.28
2023-04-18T20:22:00.162Z,91.52
2023-04-18T20:25:01.801Z,92.08
2023-04-18T20:28:03.988Z,91.75
2023-04-18T20:31:06.098Z,92.43
2023-04-18T20:34:08.069Z,91.55
2023-04-18T20:37:10.072Z,92.00
2023-04-18T20:40:12.753Z,92.36
2023-04-18T20:43:17.790Z,91.33
2023-04-18T20:46:19.920Z,92.28
2023-04-18T20:49:21.886Z,92.03
2023-04-18T20:52:23.490Z,92.42
2023-04-18T20:55:26.206Z,92.34
2023-04-18T20:58:29.165Z,92.35
2023-04-18T21:01:31.671Z,92.49
2023-04-18T21:04:33.827Z,92.58
2023-04-18T21:07:36.302Z,92.68
2023-04-18T21:10:39.128Z,92.77
2023-04-18T21:13:41.140Z,92.27
2023-04-18T21:16:46.688Z,92.55
2023-04-18T21:19:49.655Z,92.58
2023-04-18T21:22:51.192Z,92.91
2023-04-18T21:25:53.208Z,93.26
2023-04-18T21:28:57.556Z,92.97
2023-04-18T21:31:59.648Z,93.07
2023-04-18T21:35:01.508Z,93.63
2023-04-18T21:38:03.667Z,93.00
2023-04-18T21:41:06.857Z,92.86
2023-04-18T21:44:08.433Z,93.28
2023-04-18T21:47:10.986Z,93.93
2023-04-18T21:50:13.150Z,93.47
2023-04-18T21:53:17.255Z,93.61
2023-04-18T21:56:19.403Z,93.96
2023-04-18T21:59:21.493Z,93.45
2023-04-18T22:02:28.357Z,94.26
2023-04-18T22:05:33.726Z,93.40
2023-04-18T22:08:36.662Z,93.75
2023-04-18T22:11:38.918Z,93.95
2023-04-18T22:14:48.160Z,94.32
2023-04-18T22:17:53.247Z,94.04
2023-04-18T22:20:55.279Z,94.22
2023-04-18T22:23:58.224Z,94.36
2023-04-18T22:27:03.761Z,94.46
2023-04-18T22:30:07.473Z,93.89
2023-04-18T22:33:09.453Z,93.92
2023-04-18T22:36:11.100Z,94.40
2023-04-18T22:39:13.830Z,93.81
2023-04-18T22:42:18.285Z,93.78
2023-04-18T22:45:20.478Z,93.57
2023-04-18T22:48:22.448Z,94.15
2023-04-18T22:51:33.016Z,94.23
2023-04-18T22:54:39.410Z,93.78
2023-04-18T22:57:41.608Z,93.75
2023-04-18T23:00:44.325Z,94.43
2023-04-18T23:03:46.547Z,94.06
2023-04-18T23:06:48.892Z,94.41
2023-04-18T23:09:50.891Z,93.61
2023-04-18T23:12:52.877Z,93.67
2023-04-18T23:15:55.240Z,94.36
2023-04-18T23:18:56.882Z,94.88
2023-04-18T23:22:00.468Z,94.82
2023-04-18T23:25:02.078Z,94.24
2023-04-18T23:28:06.468Z,94.30
2023-04-18T23:31:11.824Z,94.70
2023-04-18T23:34:14.003Z,94.31
2023-04-18T23:37:18.690Z,95.28
2023-04-18T23:40:20.880Z,94.99
2023-04-18T23:43:23.094Z,95.10
2023-04-18T23:46:25.999Z,95.33
2023-04-18T23:49:30.536Z,95.51
2023-04-18T23:52:32.559Z,95.32
2023-04-18T23:55:34.540Z,95.58
2023-04-18T23:58:37.166Z,95.37
